Time;durP1;ratioP1;P1;durP2;ratioP2;P2;SDS_P1;SDS_P2;PMS_P1;PMS_P2;Temp;Humidity;BMP_temperature;BMP_pressure;BME280_temperature;BME280_humidity;BME280_pressure;Samples;Min_cycle;Max_cycle;Signal;HPM_P1;HPM_P2
2022/11/20 00:00:50;;;;;;;18.50;12.90;;;;;;;1.96;78.97;101224.18;1626316;87;21273;-58
2022/11/20 00:03:57;;;;;;;20.08;14.03;;;;;;;1.98;78.98;101227.66;1626116;88;21246;-58
2022/11/20 00:07:05;;;;;;;17.75;13.48;;;;;;;1.99;78.93;101226.20;1626868;86;21746;-58
2022/11/20 00:10:13;;;;;;;18.92;13.72;;;;;;;2.00;78.87;101229.27;1625997;88;21295;-56
2022/11/20 00:13:20;;;;;;;20.62;14.35;;;;;;;2.00;78.83;101238.72;1626287;87;21235;-59
2022/11/20 00:16:28;;;;;;;19.23;13.65;;;;;;;2.00;78.74;101236.53;1626338;88;21319;-58
2022/11/20 00:19:34;;;;;;;18.02;13.83;;;;;;;2.01;78.74;101236.89;1626359;88;21228;-57
2022/11/20 00:22:39;;;;;;;19.25;14.78;;;;;;;2.01;78.70;101237.77;1613279;88;21219;-57
2022/11/20 00:25:45;;;;;;;20.75;14.03;;;;;;;2.02;78.70;101235.92;1626311;88;21346;-57
2022/11/20 00:29:01;;;;;;;17.52;14.15;;;;;;;1.99;78.66;101238.35;1626425;87;21357;-58
2022/11/20 00:32:07;;;;;;;15.50;11.97;;;;;;;1.98;78.53;101245.20;1626101;88;21448;-58
2022/11/20 00:35:14;;;;;;;16.87;12.58;;;;;;;1.90;78.48;101243.02;1626426;88;21385;-57
2022/11/20 00:38:22;;;;;;;17.98;13.43;;;;;;;1.88;78.45;101246.28;1626282;87;21215;-56
2022/11/20 00:41:29;;;;;;;16.02;11.75;;;;;;;1.86;78.48;101249.56;1626190;87;21255;-58
2022/11/20 00:44:35;;;;;;;17.52;12.65;;;;;;;1.88;78.47;101249.45;1626484;88;21259;-59
2022/11/20 00:47:42;;;;;;;16.42;13.00;;;;;;;1.84;78.37;101242.03;1626597;87;21231;-59
2022/11/20 00:50:49;;;;;;;15.53;12.60;;;;;;;1.81;78.35;101245.44;1626224;87;21247;-59
2022/11/20 00:53:57;;;;;;;17.32;13.13;;;;;;;1.77;78.27;101239.84;1611847;88;21302;-59
2022/11/20 00:57:03;;;;;;;16.95;13.30;;;;;;;1.71;78.21;101234.84;1626819;88;21778;-57
2022/11/20 01:00:08;;;;;;;15.90;12.85;;;;;;;1.69;78.23;101234.95;1626407;88;21307;-58
2022/11/20 01:03:14;;;;;;;16.30;12.35;;;;;;;1.68;78.27;101218.86;1626525;87;21242;-58
2022/11/20 01:06:26;;;;;;;15.83;12.98;;;;;;;1.69;78.31;101220.58;1670250;82;21261;-58
2022/11/20 01:09:34;;;;;;;19.27;12.58;;;;;;;1.68;78.24;101212.98;1677323;85;21288;-58
2022/11/20 01:12:40;;;;;;;17.62;12.28;;;;;;;1.72;78.42;101211.81;1677317;84;21244;-58
2022/11/20 01:15:48;;;;;;;15.78;11.78;;;;;;;1.74;78.40;101200.91;1677224;84;21879;-58
2022/11/20 01:18:57;;;;;;;16.48;11.88;;;;;;;1.79;78.46;101201.48;1677329;84;21213;-57
2022/11/20 01:22:03;;;;;;;14.20;11.45;;;;;;;1.77;78.31;101200.70;1677338;84;21255;-59
2022/11/20 01:25:09;;;;;;;14.13;11.10;;;;;;;1.76;78.31;101238.13;1677292;84;21209;-57
2022/11/20 01:28:14;;;;;;;14.13;10.63;;;;;;;1.79;78.25;101233.87;1677218;85;21205;-58
2022/11/20 01:31:28;;;;;;;15.65;11.60;;;;;;;1.79;78.15;101223.08;1677317;84;21208;-57
2022/11/20 01:34:35;;;;;;;14.35;11.15;;;;;;;1.77;78.04;101228.58;1677456;84;21300;-58
2022/11/20 01:37:40;;;;;;;13.48;10.70;;;;;;;1.74;77.93;101242.27;1677335;85;21284;-58
2022/11/20 01:40:47;;;;;;;14.93;11.30;;;;;;;1.74;78.04;101237.34;1677382;84;21221;-58
2022/11/20 01:43:54;;;;;;;18.00;12.55;;;;;;;1.81;78.13;101221.15;1677235;85;21225;-57
2022/11/20 01:47:08;;;;;;;16.67;12.50;;;;;;;1.83;78.13;101218.72;1677097;84;21777;-57
2022/11/20 01:50:24;;;;;;;15.95;11.78;;;;;;;1.81;77.91;101222.50;1677376;84;21268;-58
2022/11/20 01:53:33;;;;;;;13.08;10.35;;;;;;;1.73;77.86;101229.72;1677295;85;21796;-58
2022/11/20 01:56:42;;;;;;;16.10;11.22;;;;;;;1.72;77.98;101241.97;1677304;84;21225;-57
2022/11/20 01:59:52;;;;;;;15.78;11.73;;;;;;;1.73;78.00;101247.77;1677230;84;21212;-59
2022/11/20 02:03:06;;;;;;;14.18;11.20;;;;;;;1.80;78.12;101243.22;1677315;85;21217;-58
2022/11/20 02:06:29;;;;;;;13.62;10.60;;;;;;;1.82;78.08;101251.21;1671070;81;21260;-58
2022/11/20 02:09:35;;;;;;;20.68;13.48;;;;;;;1.85;78.07;101251.89;1646609;86;21201;-57
2022/11/20 02:16:05;;;;;;;13.55;10.70;;;;;;;1.83;77.92;101248.89;1646327;86;21276;-58
2022/11/20 02:19:13;;;;;;;13.75;10.50;;;;;;;1.84;77.87;101262.78;1652954;85;21240;-58
2022/11/20 02:22:29;;;;;;;16.32;11.60;;;;;;;1.82;77.80;101257.96;1646871;85;21256;-59
2022/11/20 02:25:36;;;;;;;13.85;10.90;;;;;;;1.80;77.65;101254.48;1653052;85;21227;-58
2022/11/20 02:28:43;;;;;;;14.43;11.40;;;;;;;1.79;77.72;101251.41;1646872;86;21232;-59
2022/11/20 02:31:50;;;;;;;13.68;10.55;;;;;;;1.82;77.71;101248.52;1653075;85;21232;-58
2022/11/20 02:34:57;;;;;;;14.68;9.83;;;;;;;1.83;77.73;101262.38;1646287;86;21229;-58
2022/11/20 02:38:05;;;;;;;13.28;10.65;;;;;;;1.84;77.67;101258.73;1653074;86;21212;-58
2022/11/20 02:41:11;;;;;;;12.73;9.90;;;;;;;1.81;77.62;101258.94;1646494;86;21221;-57
2022/11/20 02:44:17;;;;;;;12.47;9.28;;;;;;;1.82;77.61;101267.41;1653167;86;21224;-57
2022/11/20 02:47:23;;;;;;;13.65;10.58;;;;;;;1.86;77.72;101263.05;1653068;85;21263;-60
2022/11/20 02:50:29;;;;;;;15.55;10.90;;;;;;;1.92;77.75;101272.61;1647189;86;21205;-58
2022/11/20 02:53:34;;;;;;;13.80;10.90;;;;;;;1.98;77.71;101266.80;1653065;86;21241;-58
2022/11/20 02:56:41;;;;;;;14.30;10.88;;;;;;;2.01;77.66;101272.88;1653370;85;21263;-58
2022/11/20 02:59:48;;;;;;;14.58;11.08;;;;;;;2.01;77.58;101292.25;1649460;86;21217;-57
2022/11/20 03:02:54;;;;;;;14.07;10.93;;;;;;;2.03;77.62;101295.73;1653101;86;21204;-57
2022/11/20 03:06:00;;;;;;;15.48;11.50;;;;;;;2.04;77.67;101301.02;1646428;86;21296;-58
2022/11/20 03:09:07;;;;;;;14.15;10.95;;;;;;;2.04;77.56;101309.59;1641744;86;21208;-57
2022/11/20 03:12:14;;;;;;;16.70;12.43;;;;;;;2.03;77.51;101301.13;1653698;85;21240;-58
2022/11/20 03:15:20;;;;;;;15.50;11.50;;;;;;;2.05;77.45;101303.22;1653731;85;21299;-58
2022/11/20 03:18:27;;;;;;;16.85;12.23;;;;;;;2.10;77.55;101304.67;1653687;87;21208;-58
2022/11/20 03:21:33;;;;;;;19.75;13.50;;;;;;;2.14;77.59;101304.84;1653723;85;21280;-58
2022/11/20 03:24:39;;;;;;;21.55;14.35;;;;;;;2.22;77.75;101293.56;1653815;87;21224;-58
2022/11/20 03:27:45;;;;;;;23.62;15.70;;;;;;;2.30;77.86;101288.52;1653778;87;21209;-58
2022/11/20 03:30:53;;;;;;;23.27;15.72;;;;;;;2.34;77.82;101281.45;1653707;85;21228;-58
2022/11/20 03:33:59;;;;;;;18.42;12.63;;;;;;;2.30;77.62;101293.92;1644811;85;21268;-57
2022/11/20 03:37:06;;;;;;;20.20;13.75;;;;;;;2.21;77.41;101299.43;1645779;86;21232;-58
2022/11/20 03:40:13;;;;;;;16.35;12.85;;;;;;;2.11;77.13;101306.90;1653740;85;21220;-57
2022/11/20 03:43:21;;;;;;;18.67;13.35;;;;;;;2.10;77.25;101306.49;1653742;87;21362;-59
2022/11/20 03:46:26;;;;;;;21.77;15.53;;;;;;;2.09;77.28;101315.10;1653807;85;21235;-57
2022/11/20 03:49:32;;;;;;;16.77;12.25;;;;;;;2.14;77.43;101320.20;1653810;87;21212;-58
2022/11/20 03:52:38;;;;;;;17.80;12.60;;;;;;;2.19;77.52;101327.52;1653736;85;21189;-58
2022/11/20 03:55:43;;;;;;;17.30;12.15;;;;;;;2.25;77.63;101327.11;1654006;85;21341;-59
2022/11/20 03:58:50;;;;;;;16.73;11.85;;;;;;;2.31;77.71;101327.59;1653793;87;21254;-58
2022/11/20 04:01:56;;;;;;;15.45;11.28;;;;;;;2.34;77.51;101325.16;1653747;85;21208;-58
2022/11/20 04:05:01;;;;;;;17.42;13.15;;;;;;;2.34;77.53;101332.78;1653656;85;21212;-58
2022/11/20 04:08:08;;;;;;;17.57;12.70;;;;;;;2.37;77.48;101325.83;1646091;83;21251;-59
2022/11/20 04:11:28;;;;;;;15.28;11.38;;;;;;;2.41;77.48;101329.20;1645805;86;21240;-58
2022/11/20 04:14:34;;;;;;;15.15;11.20;;;;;;;2.45;77.46;101319.91;1652239;86;21220;-59
2022/11/20 04:17:41;;;;;;;17.40;12.50;;;;;;;2.47;77.44;101328.79;1656208;85;21236;-58
2022/11/20 04:20:47;;;;;;;16.45;11.90;;;;;;;2.44;77.23;101328.48;1656233;85;21236;-57
2022/11/20 04:23:56;;;;;;;18.42;12.55;;;;;;;2.44;77.31;101324.44;1655526;86;21188;-57
2022/11/20 04:27:02;;;;;;;14.35;11.12;;;;;;;2.47;77.35;101320.68;1655398;85;21374;-58
2022/11/20 04:30:10;;;;;;;17.37;12.50;;;;;;;2.50;77.42;101317.30;1655429;85;21212;-58
2022/11/20 04:33:15;;;;;;;17.07;11.97;;;;;;;2.49;77.22;101324.16;1631611;88;21747;-58
2022/11/20 04:36:25;;;;;;;17.17;12.50;;;;;;;2.40;76.79;101327.45;1655093;85;21356;-58
2022/11/20 04:39:30;;;;;;;17.23;12.63;;;;;;;2.31;76.65;101332.98;1651948;87;21280;-58
2022/11/20 04:42:36;;;;;;;14.93;10.98;;;;;;;2.28;76.63;101327.79;1645874;87;21737;-59
2022/11/20 04:45:43;;;;;;;14.55;10.95;;;;;;;2.29;76.80;101331.34;1652391;85;21251;-57
2022/11/20 04:48:49;;;;;;;35.73;18.05;;;;;;;2.35;77.07;101339.03;1652001;87;21274;-57
2022/11/20 04:51:56;;;;;;;23.02;14.33;;;;;;;2.39;77.08;101336.06;1652150;85;21228;-58
2022/11/20 04:55:02;;;;;;;22.50;13.32;;;;;;;2.42;77.12;101337.20;1645733;85;21260;-58
2022/11/20 04:58:09;;;;;;;18.20;12.63;;;;;;;2.45;77.14;101328.02;1656383;86;21307;-58
2022/11/20 05:01:20;;;;;;;18.35;13.85;;;;;;;2.51;77.18;101305.98;1656070;85;21228;-58
2022/11/20 05:04:26;;;;;;;18.00;13.03;;;;;;;2.43;76.96;101323.19;1657713;85;21240;-58
2022/11/20 05:07:33;;;;;;;16.97;12.45;;;;;;;2.39;76.96;101337.88;1652500;87;21208;-58
2022/11/20 05:10:41;;;;;;;20.10;13.85;;;;;;;2.31;76.82;101314.08;1654878;82;21240;-59
2022/11/20 05:13:47;;;;;;;43.55;27.80;;;;;;;2.22;76.71;101297.61;1646232;85;21169;-58
2022/11/20 05:16:54;;;;;;;29.63;20.17;;;;;;;2.21;76.90;101287.75;1651123;85;21478;-60
2022/11/20 05:20:00;;;;;;;22.48;16.10;;;;;;;2.20;76.97;101287.38;1644529;86;21572;-57
2022/11/20 05:23:09;;;;;;;20.77;13.68;;;;;;;2.19;76.97;101295.11;1666338;85;21220;-58
2022/11/20 05:26:24;;;;;;;20.25;15.28;;;;;;;2.23;77.07;101293.93;1661181;85;21239;-58
2022/11/20 05:29:31;;;;;;;22.65;16.48;;;;;;;2.15;76.93;101300.31;1651727;86;21217;-57
2022/11/20 05:32:38;;;;;;;23.30;16.90;;;;;;;2.11;77.00;101305.55;1660408;85;21212;-58
2022/11/20 05:35:46;;;;;;;30.65;20.40;;;;;;;2.12;77.07;101312.67;1651156;86;21217;-59
2022/11/20 05:38:54;;;;;;;29.12;19.50;;;;;;;2.13;77.11;101299.53;1644436;86;21753;-57
2022/11/20 05:45:25;;;;;;;19.15;13.20;;;;;;;2.23;77.25;101278.59;1643711;86;21790;-60
2022/11/20 05:48:31;;;;;;;20.30;14.63;;;;;;;2.23;77.27;101289.41;1651037;85;21201;-58
2022/11/20 05:51:37;;;;;;;17.55;13.83;;;;;;;2.25;77.28;101288.80;1660827;86;21864;-58
2022/11/20 05:54:43;;;;;;;19.57;14.43;;;;;;;2.26;77.16;101295.08;1651191;86;21208;-58
2022/11/20 05:57:49;;;;;;;18.77;14.00;;;;;;;2.20;77.00;101296.36;1660886;85;21279;-58
2022/11/20 06:00:54;;;;;;;17.07;12.75;;;;;;;2.23;77.10;101296.62;1651294;86;21240;-59
2022/11/20 06:04:01;;;;;;;19.27;12.60;;;;;;;2.29;77.13;101288.12;1644665;86;21730;-58
2022/11/20 06:07:11;;;;;;;21.93;13.68;;;;;;;2.30;77.17;101279.06;1651569;86;21786;-57
2022/11/20 06:10:18;;;;;;;21.75;15.20;;;;;;;2.32;77.13;101263.59;1644876;86;21276;-58
2022/11/20 06:13:26;;;;;;;36.33;20.75;;;;;;;2.33;77.13;101262.14;1656961;86;21339;-59
2022/11/20 06:16:35;;;;;;;34.05;19.32;;;;;;;2.32;77.08;101264.47;1661736;85;21379;-58
2022/11/20 06:19:43;;;;;;;28.98;17.37;;;;;;;2.31;77.01;101262.75;1656821;86;21263;-58
2022/11/20 06:22:49;;;;;;;29.70;17.57;;;;;;;2.33;77.03;101265.35;1657166;86;21362;-60
2022/11/20 06:25:56;;;;;;;31.75;19.70;;;;;;;2.34;77.01;101272.00;1656937;86;21228;-59
2022/11/20 06:29:02;;;;;;;28.40;19.00;;;;;;;2.32;76.94;101275.75;1661280;86;21350;-58
2022/11/20 06:32:09;;;;;;;24.12;17.35;;;;;;;2.36;77.04;101269.20;1656055;86;21855;-58
2022/11/20 06:35:17;;;;;;;23.22;16.07;;;;;;;2.42;77.14;101275.53;1660996;86;21228;-58
2022/11/20 06:38:22;;;;;;;27.10;18.75;;;;;;;2.49;77.20;101270.11;1656274;86;21228;-58
2022/11/20 06:41:29;;;;;;;24.87;15.48;;;;;;;2.54;77.25;101260.71;1657353;86;21784;-58
2022/11/20 06:44:34;;;;;;;25.02;16.85;;;;;;;2.57;77.26;101262.36;1661854;86;21248;-59
2022/11/20 06:47:40;;;;;;;23.98;15.40;;;;;;;2.62;77.28;101266.94;1632350;88;21277;-59
2022/11/20 06:50:46;;;;;;;22.75;15.00;;;;;;;2.63;77.17;101256.02;1662988;85;21256;-59
2022/11/20 06:53:53;;;;;;;22.80;14.35;;;;;;;2.60;77.05;101249.48;1632957;86;22077;-59
2022/11/20 06:57:01;;;;;;;22.35;15.48;;;;;;;2.60;77.02;101256.74;1672040;82;21405;-60
2022/11/20 07:00:07;;;;;;;20.55;14.05;;;;;;;2.60;77.00;101255.39;1632151;87;21734;-59
2022/11/20 07:03:15;;;;;;;22.60;15.23;;;;;;;2.63;77.05;101259.23;1661991;85;21729;-59
2022/11/20 07:06:22;;;;;;;19.40;13.88;;;;;;;2.67;77.04;101258.03;1616033;88;21320;-58
2022/11/20 07:09:30;;;;;;;20.75;14.18;;;;;;;2.67;76.98;101256.69;1662996;85;21696;-58
2022/11/20 07:12:36;;;;;;;29.42;19.07;;;;;;;2.67;76.91;101244.52;1656512;84;21216;-58
2022/11/20 07:15:41;;;;;;;22.37;16.07;;;;;;;2.64;76.85;101240.69;1655259;85;21299;-58
2022/11/20 07:18:49;;;;;;;24.67;15.38;;;;;;;2.64;76.82;101229.87;1631522;88;21241;-58
2022/11/20 07:21:57;;;;;;;19.52;14.45;;;;;;;2.64;76.77;101230.75;1645133;86;21235;-58
2022/11/20 07:25:03;;;;;;;22.25;14.60;;;;;;;2.63;76.75;101220.05;1654920;85;21213;-58
2022/11/20 07:28:08;;;;;;;20.57;14.65;;;;;;;2.61;76.67;101225.55;1650775;87;21626;-57
2022/11/20 07:31:16;;;;;;;21.12;15.30;;;;;;;2.59;76.61;101222.55;1654953;85;21788;-58
2022/11/20 07:34:24;;;;;;;19.70;14.15;;;;;;;2.51;76.47;101216.81;1655304;85;21302;-59
2022/11/20 07:37:30;;;;;;;20.50;14.50;;;;;;;2.45;76.49;101214.53;1648836;87;21212;-58
2022/11/20 07:40:36;;;;;;;24.57;15.68;;;;;;;2.41;76.46;101211.67;1654791;85;21268;-59
2022/11/20 07:43:42;;;;;;;21.07;14.98;;;;;;;2.42;76.58;101203.46;1630098;87;21232;-59
2022/11/20 07:46:49;;;;;;;23.62;16.15;;;;;;;2.44;76.66;101205.55;1628804;86;21259;-58
2022/11/20 07:49:56;;;;;;;23.50;16.30;;;;;;;2.47;76.63;101212.59;1628913;87;21223;-58
2022/11/20 07:53:12;;;;;;;25.25;15.80;;;;;;;2.48;76.64;101196.75;1667178;84;21725;-58
2022/11/20 07:56:19;;;;;;;23.00;16.17;;;;;;;2.48;76.65;101198.98;1650074;85;21240;-57
2022/11/20 07:59:25;;;;;;;22.70;15.50;;;;;;;2.50;76.59;101192.13;1649293;87;21260;-59
2022/11/20 08:02:31;;;;;;;30.10;20.65;;;;;;;2.52;76.57;101199.64;1643396;87;21292;-57
2022/11/20 08:05:37;;;;;;;33.90;21.77;;;;;;;2.48;76.43;101186.82;1652073;85;21661;-58
2022/11/20 08:08:43;;;;;;;25.00;17.37;;;;;;;2.49;76.45;101199.35;1651058;87;21208;-58
2022/11/20 08:15:21;;;;;;;30.80;18.27;;;;;;;2.56;76.45;101177.70;1619752;87;21305;-59
2022/11/20 08:18:26;;;;;;;25.40;17.62;;;;;;;2.61;76.45;101172.85;1606641;88;21509;-59
2022/11/20 08:21:34;;;;;;;25.77;16.95;;;;;;;2.61;76.41;101175.55;1642402;87;21174;-58
2022/11/20 08:24:40;;;;;;;27.50;17.50;;;;;;;2.63;76.46;101176.80;1642395;87;21194;-59
2022/11/20 08:27:48;;;;;;;28.47;18.70;;;;;;;2.68;76.51;101170.59;1628662;87;21163;-59
2022/11/20 08:30:57;;;;;;;26.65;17.65;;;;;;;2.69;76.44;101173.66;1642919;87;21218;-59
2022/11/20 08:34:04;;;;;;;27.77;17.73;;;;;;;2.70;76.44;101169.50;1643465;86;21699;-59
2022/11/20 08:37:16;;;;;;;23.55;15.60;;;;;;;2.70;76.44;101173.55;1643378;86;21281;-58
2022/11/20 08:40:22;;;;;;;23.15;15.50;;;;;;;2.72;76.47;101172.97;1643618;86;21621;-58
2022/11/20 08:43:29;;;;;;;20.82;14.25;;;;;;;2.76;76.50;101168.19;1643609;87;21210;-58
2022/11/20 08:46:40;;;;;;;20.60;15.03;;;;;;;2.73;76.32;101183.27;1643416;87;21996;-58
2022/11/20 08:49:45;;;;;;;20.88;14.33;;;;;;;2.70;76.36;101170.86;1643770;87;21206;-59
2022/11/20 08:52:51;;;;;;;20.20;14.23;;;;;;;2.69;76.29;101176.37;1644092;87;21230;-58
2022/11/20 08:55:59;;;;;;;21.97;13.80;;;;;;;2.70;76.29;101179.44;1644083;86;21214;-59
2022/11/20 08:59:06;;;;;;;20.25;14.25;;;;;;;2.70;76.36;101171.33;1644070;87;21236;-59
2022/11/20 09:02:15;;;;;;;21.70;14.65;;;;;;;2.70;76.39;101174.03;1643254;87;21313;-60
2022/11/20 09:05:21;;;;;;;33.23;21.68;;;;;;;2.68;76.36;101167.38;1644175;86;21218;-59
2022/11/20 09:08:26;;;;;;;25.97;17.45;;;;;;;2.70;76.42;101171.33;1644136;87;21210;-57
2022/11/20 09:11:32;;;;;;;22.27;15.98;;;;;;;2.70;76.33;101173.55;1644066;87;21225;-58
2022/11/20 09:14:40;;;;;;;21.07;15.53;;;;;;;2.75;76.41;101167.82;1645436;82;21242;-58
2022/11/20 09:17:52;;;;;;;23.32;15.53;;;;;;;2.80;76.40;101156.20;1640819;86;21214;-58
2022/11/20 09:21:02;;;;;;;37.73;25.88;;;;;;;2.83;76.36;101150.58;1640530;86;21896;-59
2022/11/20 09:24:10;;;;;;;71.80;49.83;;;;;;;2.83;76.30;101151.94;1640674;86;21265;-58
2022/11/20 09:27:21;;;;;;;32.23;22.75;;;;;;;2.79;76.25;101151.28;1626044;87;21352;-57
2022/11/20 09:30:31;;;;;;;;;;;;;;;2.80;76.23;101153.50;1643432;86;21865;-59
2022/11/20 09:33:37;;;;;;;33.35;22.15;;;;;;;2.76;76.17;101143.86;1640959;86;20202;-59
2022/11/20 09:36:44;;;;;;;27.93;18.75;;;;;;;2.71;76.25;101143.34;1642902;85;21391;-59
2022/11/20 09:39:52;;;;;;;26.57;18.27;;;;;;;2.69;76.22;101142.11;1635916;85;21794;-58
2022/11/20 09:43:20;;;;;;;26.35;18.37;;;;;;;2.71;76.15;101143.34;1644738;85;21340;-58
2022/11/20 09:46:41;;;;;;;23.95;16.82;;;;;;;2.73;76.19;101146.30;1644072;86;21225;-58
2022/11/20 09:50:00;;;;;;;23.00;15.68;;;;;;;2.80;76.22;101139.98;1645731;86;21216;-58
2022/11/20 09:53:21;;;;;;;25.17;17.00;;;;;;;2.86;76.30;101138.20;1645463;86;21279;-58
2022/11/20 09:56:28;;;;;;;24.90;16.32;;;;;;;2.92;76.21;101130.99;1646388;86;21327;-60
2022/11/20 09:59:50;;;;;;;37.10;25.00;;;;;;;2.98;76.19;101118.41;1645302;87;21766;-58
2022/11/20 10:03:21;;;;;;;28.52;19.27;;;;;;;3.06;76.22;101113.28;1647330;86;21213;-59
2022/11/20 10:06:40;;;;;;;25.43;17.27;;;;;;;3.13;76.13;101105.59;1644834;87;21237;-58
2022/11/20 10:09:53;;;;;;;21.42;15.00;;;;;;;3.19;76.10;101099.27;1645300;85;21361;-59
2022/11/20 10:13:34;;;;;;;29.55;20.80;;;;;;;3.28;76.13;101085.08;1644332;85;21622;-60
2022/11/20 10:16:58;;;;;;;21.45;14.68;;;;;;;3.30;75.92;101099.34;1653590;82;21258;-59
2022/11/20 10:20:42;;;;;;;21.27;15.03;;;;;;;3.35;75.96;101094.45;1645762;86;21757;-59
2022/11/20 10:24:25;;;;;;;19.20;13.75;;;;;;;3.43;75.94;101091.18;1651238;85;21204;-58
2022/11/20 10:27:53;;;;;;;22.90;15.83;;;;;;;3.48;75.87;101081.76;1618376;88;21228;-58
2022/11/20 10:31:15;;;;;;;22.93;16.37;;;;;;;3.50;75.78;101069.47;1647309;85;21263;-59
2022/11/20 10:34:43;;;;;;;20.15;15.15;;;;;;;3.48;75.75;101064.17;1650322;87;22064;-58
2022/11/20 10:37:53;;;;;;;19.85;13.93;;;;;;;3.51;75.79;101065.29;1653122;85;21272;-58
2022/11/20 10:41:24;;;;;;;22.13;14.75;;;;;;;3.55;75.82;101073.54;1649548;85;21247;-58
2022/11/20 10:48:22;;;;;;;33.10;21.33;;;;;;;3.55;75.67;101075.41;1642437;86;20255;-58
2022/11/20 10:51:41;;;;;;;24.65;16.50;;;;;;;3.44;75.66;101073.48;1649231;86;21240;-57
2022/11/20 10:55:34;;;;;;;21.02;14.50;;;;;;;3.45;75.69;101067.59;1658657;84;21208;-60
2022/11/20 10:58:48;;;;;;;22.32;15.23;;;;;;;3.41;75.59;101064.75;1623464;88;21220;-59
2022/11/20 11:01:57;;;;;;;20.48;14.43;;;;;;;3.35;75.52;101071.46;1624369;86;21229;-58
2022/11/20 11:05:05;;;;;;;20.80;14.38;;;;;;;3.29;75.55;101047.57;1634043;86;21203;-57
2022/11/20 11:08:20;;;;;;;23.42;15.38;;;;;;;3.26;75.53;101034.27;1628095;86;21291;-58
2022/11/20 11:11:37;;;;;;;19.55;13.80;;;;;;;3.17;75.37;101037.67;1618217;87;21283;-58
2022/11/20 11:14:56;;;;;;;;;;;;;;;3.05;75.37;101035.37;1663219;86;21200;-59
2022/11/20 11:18:02;;;;;;;20.45;13.83;;;;;;;2.92;75.28;101048.52;1647196;83;20242;-58
2022/11/20 11:21:11;;;;;;;18.82;13.20;;;;;;;2.79;75.48;101039.59;1647345;85;21235;-59
2022/11/20 11:24:32;;;;;;;17.50;12.80;;;;;;;2.79;75.67;101025.57;1647471;86;21213;-58
2022/11/20 11:27:42;;;;;;;17.35;12.03;;;;;;;2.83;75.81;101024.87;1647304;87;21221;-58
2022/11/20 11:30:50;;;;;;;21.10;12.03;;;;;;;2.81;75.83;101007.41;1646934;85;21304;-58
2022/11/20 11:33:55;;;;;;;19.85;13.00;;;;;;;2.81;75.91;100998.42;1668289;86;21201;-58
2022/11/20 11:37:05;;;;;;;16.85;11.88;;;;;;;2.84;75.92;100986.91;1669241;84;21253;-59
2022/11/20 11:40:11;;;;;;;17.45;12.07;;;;;;;2.85;75.90;100975.61;1661044;86;21210;-59
2022/11/20 11:47:04;;;;;;;15.78;11.22;;;;;;;2.83;75.89;100941.94;1650348;86;21277;-58
2022/11/20 11:50:23;;;;;;;14.25;9.88;;;;;;;2.87;75.94;100939.88;1667780;86;21220;-58
2022/11/20 11:53:31;;;;;;;15.83;10.43;;;;;;;2.89;76.02;100927.95;1668765;86;21218;-59
2022/11/20 11:56:39;;;;;;;16.57;10.70;;;;;;;2.91;76.06;100915.20;1663570;86;21225;-59
2022/11/20 12:00:22;;;;;;;15.93;10.25;;;;;;;2.87;76.00;100917.73;1667743;84;21783;-59
2022/11/20 12:03:41;;;;;;;14.40;9.40;;;;;;;2.85;75.96;100917.48;1640119;87;21232;-59
2022/11/20 12:06:49;;;;;;;13.43;10.05;;;;;;;2.83;76.02;100924.84;1641067;86;21245;-59
2022/11/20 12:09:59;;;;;;;14.43;10.00;;;;;;;2.81;76.09;100922.25;1640652;87;21778;-59
2022/11/20 12:13:12;;;;;;;15.20;9.93;;;;;;;2.80;76.07;100917.84;1661204;85;21254;-60
2022/11/20 12:16:21;;;;;;;14.47;9.90;;;;;;;2.79;76.15;100919.30;1662407;84;21227;-59
2022/11/20 12:19:26;;;;;;;15.72;10.63;;;;;;;2.76;76.11;100910.91;1659842;82;21628;-60
2022/11/20 12:22:58;;;;;;;18.55;10.88;;;;;;;2.74;76.17;100893.09;1663442;85;21274;-59
2022/11/20 12:26:06;;;;;;;16.35;10.08;;;;;;;2.74;76.22;100887.69;1665415;85;21201;-60
2022/11/20 12:29:28;;;;;;;15.75;10.38;;;;;;;2.75;76.33;100877.23;1675427;84;21256;-59
2022/11/20 12:32:48;;;;;;;12.65;9.10;;;;;;;2.74;76.38;100879.06;1688968;84;21188;-58
2022/11/20 12:36:23;;;;;;;12.25;9.00;;;;;;;2.69;76.31;100862.84;1696118;83;21283;-59
2022/11/20 12:39:49;;;;;;;12.58;9.03;;;;;;;2.61;76.23;100862.06;1696299;84;21196;-59
2022/11/20 12:47:01;;;;;;;13.08;9.63;;;;;;;2.54;76.43;100859.42;1696282;83;21738;-59
2022/11/20 12:50:38;;;;;;;12.80;8.88;;;;;;;2.54;76.56;100862.12;1697003;83;21197;-59
2022/11/20 12:53:58;;;;;;;19.90;11.63;;;;;;;2.52;76.53;100876.23;1696838;84;21255;-59
2022/11/20 12:57:32;;;;;;;16.27;10.72;;;;;;;2.49;76.51;100881.02;1697107;83;21236;-58
2022/11/20 13:00:40;;;;;;;22.87;14.45;;;;;;;2.49;76.62;100865.66;1696764;83;21769;-60
2022/11/20 13:03:53;;;;;;;18.20;12.23;;;;;;;2.48;76.58;100874.75;1696421;83;21653;-59
2022/11/20 13:07:01;;;;;;;18.00;12.55;;;;;;;2.46;76.55;100879.88;1691333;83;21229;-59
2022/11/20 13:10:07;;;;;;;21.15;13.13;;;;;;;2.45;76.60;100883.56;1668984;84;22080;-59
2022/11/20 13:13:42;;;;;;;17.92;12.37;;;;;;;2.43;76.58;100877.39;1669428;86;21221;-59
2022/11/20 13:17:09;;;;;;;14.15;10.00;;;;;;;2.38;76.57;100869.63;1669351;84;21241;-59
2022/11/20 13:20:19;;;;;;;13.78;9.65;;;;;;;2.40;76.68;100869.52;1650866;82;21242;-59
2022/11/20 13:23:34;;;;;;;15.48;9.65;;;;;;;2.38;76.69;100857.98;1654963;85;21228;-59
2022/11/20 13:26:42;;;;;;;14.13;9.15;;;;;;;2.37;76.79;100867.05;1655102;85;21232;-59
2022/11/20 13:29:57;;;;;;;12.78;8.43;;;;;;;2.40;76.90;100870.39;1654670;84;21425;-58
2022/11/20 13:33:06;;;;;;;12.18;8.78;;;;;;;2.41;76.90;100865.86;1628271;87;21239;-59
2022/11/20 13:36:16;;;;;;;14.75;9.53;;;;;;;2.41;76.91;100872.11;1627364;86;21220;-59
2022/11/20 13:39:35;;;;;;;13.18;8.98;;;;;;;2.42;76.92;100867.58;1624147;88;21785;-58
2022/11/20 13:42:45;;;;;;;12.03;8.90;;;;;;;2.42;76.90;100871.63;1627586;87;21239;-58
2022/11/20 13:45:53;;;;;;;11.85;8.35;;;;;;;2.46;77.00;100859.61;1627996;87;21244;-58
2022/11/20 13:49:01;;;;;;;13.58;9.18;;;;;;;2.49;77.06;100848.09;1638789;86;21797;-58
2022/11/20 13:53:04;;;;;;;12.35;8.65;;;;;;;2.52;77.13;100841.62;1623327;87;21296;-58
2022/11/20 13:56:20;;;;;;;9.90;7.30;;;;;;;2.57;77.12;100839.44;1638800;86;21303;-57
2022/11/20 13:59:53;;;;;;;9.50;6.83;;;;;;;2.58;77.14;100836.63;1643489;86;21236;-58
2022/11/20 14:03:19;;;;;;;10.85;7.47;;;;;;;2.60;77.08;100823.00;1665357;85;22043;-59
2022/11/20 14:06:36;;;;;;;9.63;6.92;;;;;;;2.61;77.11;100805.31;1643769;85;21794;-58
2022/11/20 14:09:42;;;;;;;9.00;6.72;;;;;;;2.65;77.21;100798.69;1652552;86;21886;-59
2022/11/20 14:12:50;;;;;;;9.78;6.90;;;;;;;2.67;77.14;100808.03;1649316;86;21220;-58
2022/11/20 14:16:01;;;;;;;10.13;7.08;;;;;;;2.68;77.16;100792.20;1652726;86;21244;-58
2022/11/20 14:19:07;;;;;;;10.48;7.62;;;;;;;2.68;77.18;100795.75;1653587;85;21278;-58
2022/11/20 14:22:33;;;;;;;10.82;6.95;;;;;;;2.68;77.15;100793.56;1647415;82;21252;-58
2022/11/20 14:25:39;;;;;;;10.55;7.70;;;;;;;2.69;77.19;100787.16;1620240;87;21758;-59
2022/11/20 14:28:46;;;;;;;10.08;7.50;;;;;;;2.72;77.14;100780.17;1620347;87;21297;-58
2022/11/20 14:31:53;;;;;;;12.68;7.53;;;;;;;2.74;77.17;100777.70;1575774;88;21241;-58
2022/11/20 14:35:00;;;;;;;10.15;6.95;;;;;;;2.77;77.22;100782.03;1642472;87;21217;-58
2022/11/20 14:38:06;;;;;;;10.23;7.10;;;;;;;2.78;77.20;100774.29;1643017;87;21205;-59
2022/11/20 14:41:18;;;;;;;10.82;7.15;;;;;;;2.80;77.19;100768.28;1643203;86;21308;-59
2022/11/20 14:44:25;;;;;;;10.15;6.90;;;;;;;2.81;77.19;100752.42;1642704;86;21284;-58
2022/11/20 14:47:33;;;;;;;11.85;7.60;;;;;;;2.82;77.15;100746.06;1641097;86;21222;-58
2022/11/20 14:50:38;;;;;;;12.20;7.95;;;;;;;2.84;77.17;100740.02;1641843;86;21782;-58
2022/11/20 14:53:45;;;;;;;11.05;7.45;;;;;;;2.84;77.17;100738.67;1641338;87;21225;-58
2022/11/20 14:57:05;;;;;;;10.80;7.22;;;;;;;2.84;77.11;100731.91;1641305;87;21233;-58
2022/11/20 15:00:22;;;;;;;10.15;6.60;;;;;;;2.80;77.08;100729.09;1641446;86;21274;-59